Time;durP1;ratioP1;P1;durP2;ratioP2;P2;SDS_P1;SDS_P2;PMS_P1;PMS_P2;Temp;Humidity;BMP_temperature;BMP_pressure;BME280_temperature;BME280_humidity;BME280_pressure;Samples;Min_cycle;Max_cycle;Signal;HPM_P1;HPM_P2
2023/03/22 00:00:52;;;;;;;11.23;7.32;;;10.70;99.90;;;;;;5077942;28;20036;-74
2023/03/22 00:03:19;;;;;;;12.27;7.20;;;10.70;99.90;;;;;;5079810;28;20040;-74
2023/03/22 00:05:45;;;;;;;10.15;6.82;;;10.70;99.90;;;;;;5083617;28;20054;-74
2023/03/22 00:08:12;;;;;;;10.57;6.25;;;10.70;99.90;;;;;;5076873;28;20044;-73
2023/03/22 00:10:39;;;;;;;9.40;5.95;;;10.70;99.90;;;;;;5083290;28;20103;-74
2023/03/22 00:13:07;;;;;;;12.05;6.93;;;10.60;99.90;;;;;;5081268;28;20159;-74
2023/03/22 00:15:33;;;;;;;13.43;7.57;;;10.70;99.90;;;;;;5073695;28;20047;-74
2023/03/22 00:18:00;;;;;;;12.85;7.97;;;10.60;99.90;;;;;;5078549;28;20085;-74
2023/03/22 00:20:32;;;;;;;11.85;7.57;;;10.70;99.90;;;;;;5075807;28;20044;-74
2023/03/22 00:22:58;;;;;;;12.43;7.15;;;10.60;99.90;;;;;;5079308;28;20052;-75
2023/03/22 00:25:24;;;;;;;10.30;6.60;;;10.60;99.90;;;;;;5074553;28;20119;-74
2023/03/22 00:27:50;;;;;;;9.73;6.55;;;10.60;99.90;;;;;;5074816;28;20147;-74
2023/03/22 00:30:16;;;;;;;12.77;6.63;;;10.60;99.90;;;;;;5076229;28;20093;-74
2023/03/22 00:32:42;;;;;;;8.75;5.32;;;10.50;99.90;;;;;;5075170;28;20099;-74
2023/03/22 00:35:09;;;;;;;11.82;5.85;;;10.50;99.90;;;;;;5058863;28;20048;-74
2023/03/22 00:37:37;;;;;;;9.48;5.82;;;10.40;99.90;;;;;;5072236;28;20040;-75
2023/03/22 00:40:11;;;;;;;9.40;5.55;;;10.50;99.90;;;;;;5057651;28;20404;-74
2023/03/22 00:42:39;;;;;;;10.45;5.85;;;10.50;99.90;;;;;;5080094;28;20123;-74
2023/03/22 00:45:07;;;;;;;9.40;5.38;;;10.40;99.90;;;;;;5077614;28;20063;-74
2023/03/22 00:47:33;;;;;;;11.80;5.45;;;10.40;99.90;;;;;;5064765;28;20119;-74
2023/03/22 00:49:59;;;;;;;10.10;4.90;;;10.40;99.90;;;;;;5085080;28;20040;-72
2023/03/22 00:52:25;;;;;;;11.05;4.90;;;10.40;99.90;;;;;;5060653;28;20123;-73
2023/03/22 00:54:51;;;;;;;11.77;4.78;;;10.40;99.90;;;;;;5081465;28;20056;-73
2023/03/22 00:57:17;;;;;;;6.95;4.60;;;10.30;99.90;;;;;;5075731;28;20073;-74
2023/03/22 00:59:43;;;;;;;9.10;4.60;;;10.40;99.90;;;;;;5074942;28;20048;-73
2023/03/22 01:02:12;;;;;;;10.57;4.53;;;10.30;99.90;;;;;;5069809;28;20076;-74
2023/03/22 01:04:48;;;;;;;9.18;3.75;;;10.30;99.90;;;;;;5064662;28;20546;-75
2023/03/22 01:07:16;;;;;;;8.05;3.88;;;10.20;99.90;;;;;;5085947;28;20036;-74
2023/03/22 01:09:43;;;;;;;8.25;3.75;;;10.20;99.90;;;;;;5082982;28;20494;-73
2023/03/22 01:12:10;;;;;;;8.40;3.78;;;10.20;99.90;;;;;;5080458;28;20040;-73
2023/03/22 01:14:35;;;;;;;5.38;3.03;;;10.20;99.90;;;;;;5069363;28;20043;-74
2023/03/22 01:17:01;;;;;;;9.50;3.90;;;10.20;99.90;;;;;;5067422;28;20406;-73
2023/03/22 01:19:27;;;;;;;6.45;3.75;;;10.10;99.90;;;;;;5060708;28;20075;-73
2023/03/22 01:21:53;;;;;;;7.18;3.42;;;10.20;99.90;;;;;;5056483;28;20520;-73
2023/03/22 01:24:19;;;;;;;7.90;3.05;;;10.10;99.90;;;;;;5081606;28;20555;-74
2023/03/22 01:26:45;;;;;;;5.80;3.05;;;10.10;99.90;;;;;;5062131;28;20051;-73
2023/03/22 01:29:11;;;;;;;8.07;3.15;;;10.10;99.90;;;;;;5087509;28;20036;-73
2023/03/22 01:31:37;;;;;;;9.88;3.03;;;10.10;99.90;;;;;;5080430;28;20399;-73
2023/03/22 01:34:03;;;;;;;9.98;2.97;;;10.10;99.90;;;;;;5075484;28;20040;-73
2023/03/22 01:36:29;;;;;;;9.23;3.15;;;10.10;99.90;;;;;;5059012;28;20039;-74
2023/03/22 01:38:55;;;;;;;8.13;2.70;;;10.10;99.90;;;;;;5067191;28;20048;-73
2023/03/22 01:41:21;;;;;;;7.43;3.00;;;10.10;99.90;;;;;;5064168;28;20048;-73
2023/03/22 01:44:13;;;;;;;7.00;2.75;;;10.10;99.90;;;;;;5080969;28;20047;-74
2023/03/22 01:46:45;;;;;;;8.02;2.88;;;10.00;99.90;;;;;;5074196;28;20098;-73
2023/03/22 01:49:16;;;;;;;5.90;2.20;;;10.00;99.90;;;;;;5072976;28;20032;-73
2023/03/22 01:51:43;;;;;;;6.72;2.47;;;10.00;99.90;;;;;;5072361;28;20135;-73
2023/03/22 01:54:14;;;;;;;5.55;1.98;;;10.10;99.90;;;;;;5074434;28;20075;-74
2023/03/22 01:56:41;;;;;;;8.57;2.47;;;10.10;99.90;;;;;;5076917;28;20040;-73
2023/03/22 01:59:11;;;;;;;5.03;2.03;;;10.00;99.90;;;;;;5081122;28;20044;-74
2023/03/22 02:01:37;;;;;;;6.70;2.30;;;10.00;99.90;;;;;;5077069;28;20119;-74
2023/03/22 02:04:32;;;;;;;6.25;2.38;;;10.00;99.90;;;;;;5080247;28;20119;-73
2023/03/22 02:07:02;;;;;;;7.18;1.73;;;10.00;99.90;;;;;;5081490;28;20064;-73
2023/03/22 02:09:29;;;;;;;6.43;1.70;;;10.00;99.90;;;;;;5086646;28;20044;-73
2023/03/22 02:12:17;;;;;;;6.25;1.98;;;10.00;99.90;;;;;;5081511;28;20130;-73
2023/03/22 02:15:02;;;;;;;6.88;2.15;;;10.00;99.90;;;;;;5059064;28;20119;-73
2023/03/22 02:18:05;;;;;;;8.48;1.88;;;10.00;99.90;;;;;;5083589;28;20518;-73
2023/03/22 02:21:00;;;;;;;6.70;1.90;;;10.00;99.90;;;;;;5060736;28;20127;-74
2023/03/22 02:23:43;;;;;;;4.85;1.52;;;10.00;99.90;;;;;;5076621;28;20059;-73
2023/03/22 02:26:45;;;;;;;7.60;1.60;;;10.00;99.90;;;;;;5076628;28;20054;-73
2023/03/22 02:29:14;;;;;;;8.63;1.63;;;10.00;99.90;;;;;;5073486;28;20037;-73
2023/03/22 02:31:49;;;;;;;4.63;1.50;;;10.00;99.90;;;;;;5077303;28;20126;-73
2023/03/22 02:34:27;;;;;;;4.97;1.63;;;10.10;99.90;;;;;;5090194;28;20047;-73
2023/03/22 02:37:16;;;;;;;8.10;1.88;;;10.10;99.90;;;;;;5080894;28;20123;-73
2023/03/22 02:39:59;;;;;;;4.80;1.30;;;10.00;99.90;;;;;;5074209;28;20041;-73
2023/03/22 02:42:51;;;;;;;7.30;1.52;;;10.00;99.90;;;;;;5082191;28;20079;-72
2023/03/22 02:45:19;;;;;;;5.63;1.20;;;10.00;99.90;;;;;;5075312;28;20064;-73
2023/03/22 02:47:57;;;;;;;5.43;1.40;;;10.00;99.90;;;;;;5079620;28;20489;-73
2023/03/22 02:50:40;;;;;;;6.70;1.52;;;10.00;99.90;;;;;;5083286;28;20047;-73
2023/03/22 02:53:20;;;;;;;6.82;1.65;;;10.00;99.90;;;;;;5080091;28;20036;-73
2023/03/22 02:55:58;;;;;;;3.72;1.20;;;10.00;99.90;;;;;;5077080;28;20040;-73
2023/03/22 02:58:44;;;;;;;5.95;2.33;;;10.10;99.90;;;;;;5078540;28;20074;-73
2023/03/22 03:01:27;;;;;;;6.15;2.00;;;10.10;99.90;;;;;;5074696;28;20178;-74
2023/03/22 03:03:57;;;;;;;7.78;1.90;;;10.10;99.90;;;;;;5064718;28;20046;-73
2023/03/22 03:06:27;;;;;;;6.57;1.75;;;10.10;99.90;;;;;;5078201;28;20028;-74
2023/03/22 03:08:56;;;;;;;5.40;1.40;;;10.20;99.90;;;;;;5082841;28;20165;-74
2023/03/22 03:11:23;;;;;;;7.93;1.48;;;10.20;99.90;;;;;;5057076;28;20097;-74
2023/03/22 03:13:50;;;;;;;6.75;1.60;;;10.20;99.90;;;;;;5071226;28;20115;-74
2023/03/22 03:16:25;;;;;;;8.32;2.22;;;10.30;99.90;;;;;;5058633;28;20544;-72
2023/03/22 03:19:03;;;;;;;8.20;1.63;;;10.30;99.90;;;;;;5081322;28;20040;-73
2023/03/22 03:21:41;;;;;;;6.28;1.60;;;10.30;99.90;;;;;;5086604;28;20388;-74
2023/03/22 03:24:16;;;;;;;11.02;1.92;;;10.30;99.90;;;;;;5080041;28;20143;-73
2023/03/22 03:27:00;;;;;;;9.48;1.95;;;10.30;99.90;;;;;;5070742;28;20044;-74
2023/03/22 03:29:44;;;;;;;7.53;1.92;;;10.30;99.90;;;;;;5074036;28;20044;-74
2023/03/22 03:32:36;;;;;;;7.13;1.52;;;10.30;99.90;;;;;;5083992;28;20078;-72
2023/03/22 03:35:32;;;;;;;4.72;1.40;;;10.30;99.90;;;;;;5086929;28;20067;-75
2023/03/22 03:38:01;;;;;;;5.97;1.50;;;10.20;99.90;;;;;;5069270;28;20125;-74
2023/03/22 03:40:33;;;;;;;8.52;1.73;;;10.20;99.90;;;;;;5073994;28;20048;-73
2023/03/22 03:43:02;;;;;;;6.03;1.77;;;10.20;99.90;;;;;;5080117;28;20806;-73
2023/03/22 03:45:28;;;;;;;7.75;1.60;;;10.20;99.90;;;;;;5077723;28;20066;-74
2023/03/22 03:47:59;;;;;;;5.25;1.40;;;10.20;99.90;;;;;;5045895;28;20049;-73
2023/03/22 03:50:25;;;;;;;7.05;1.92;;;10.10;99.90;;;;;;5073829;28;21530;-73
2023/03/22 03:52:52;;;;;;;7.57;1.70;;;10.10;99.90;;;;;;5079446;28;20063;-73
2023/03/22 03:55:19;;;;;;;6.90;1.88;;;10.20;99.90;;;;;;5081319;28;20143;-73
2023/03/22 03:57:45;;;;;;;5.95;1.65;;;10.20;99.90;;;;;;5077455;28;20047;-73
2023/03/22 04:00:13;;;;;;;6.45;1.73;;;10.20;99.90;;;;;;5075344;28;20408;-72
2023/03/22 04:02:42;;;;;;;4.07;1.45;;;10.10;99.90;;;;;;5079165;28;20047;-73
2023/03/22 04:05:09;;;;;;;5.53;1.45;;;10.10;99.90;;;;;;5075155;28;20056;-73
2023/03/22 04:07:36;;;;;;;7.80;1.92;;;10.10;99.90;;;;;;5074702;28;20041;-73
2023/03/22 04:10:02;;;;;;;5.50;1.35;;;10.10;99.90;;;;;;5075558;28;20033;-73
2023/03/22 04:12:28;;;;;;;5.13;1.42;;;10.10;99.90;;;;;;5074427;28;20044;-74
2023/03/22 04:14:54;;;;;;;4.80;1.40;;;10.10;99.90;;;;;;5071174;28;20056;-74
2023/03/22 04:17:20;;;;;;;;;;;10.10;99.90;;;;;;5076112;28;20139;-75
2023/03/22 04:19:46;;;;;;;5.28;1.65;;;10.10;99.90;;;;;;5057793;28;20034;-74
2023/03/22 04:22:13;;;;;;;7.57;1.80;;;10.10;99.90;;;;;;5057468;28;20040;-75
2023/03/22 04:24:40;;;;;;;6.63;2.08;;;10.10;99.90;;;;;;5069683;28;20043;-74
2023/03/22 04:27:07;;;;;;;5.90;1.95;;;10.10;99.90;;;;;;5073962;28;20048;-74
2023/03/22 04:29:35;;;;;;;5.97;1.52;;;10.10;99.90;;;;;;5072853;28;20043;-74
2023/03/22 04:32:04;;;;;;;6.45;2.15;;;10.10;99.90;;;;;;5084764;28;20116;-73
2023/03/22 04:34:30;;;;;;;6.00;1.90;;;10.10;99.90;;;;;;5071189;28;20064;-75
2023/03/22 04:36:56;;;;;;;7.85;2.00;;;10.00;99.90;;;;;;5076002;28;20125;-74
2023/03/22 04:39:21;;;;;;;6.88;1.80;;;10.00;99.90;;;;;;5079295;28;20189;-74
2023/03/22 04:41:47;;;;;;;7.50;1.65;;;10.00;99.90;;;;;;5078601;28;20559;-74
2023/03/22 04:44:13;;;;;;;9.98;2.85;;;10.00;99.90;;;;;;5076240;28;20055;-75
2023/03/22 04:46:39;;;;;;;5.70;2.40;;;10.00;99.90;;;;;;5060205;28;20150;-74
2023/03/22 04:49:05;;;;;;;5.93;2.38;;;10.00;99.90;;;;;;5079387;28;20067;-74
2023/03/22 04:51:31;;;;;;;6.15;2.67;;;10.00;99.90;;;;;;5078325;28;20058;-74
2023/03/22 04:53:57;;;;;;;8.30;2.90;;;10.10;99.90;;;;;;5074178;28;20482;-74
2023/03/22 04:56:23;;;;;;;6.85;3.30;;;10.10;99.90;;;;;;5087854;28;20564;-74
2023/03/22 04:58:49;;;;;;;5.13;2.80;;;10.20;99.90;;;;;;5079684;28;20044;-74
2023/03/22 05:01:16;;;;;;;5.95;3.05;;;10.20;99.90;;;;;;5078593;28;20041;-74
2023/03/22 05:03:44;;;;;;;9.88;3.08;;;10.10;99.90;;;;;;5072822;28;20120;-73
2023/03/22 05:06:10;;;;;;;8.57;3.28;;;10.10;99.90;;;;;;5072784;28;20475;-74
2023/03/22 05:08:36;;;;;;;8.98;3.53;;;10.20;99.90;;;;;;5075548;28;20093;-75
2023/03/22 05:11:12;;;;;;;11.07;3.70;;;10.20;99.90;;;;;;5076802;28;20083;-73
2023/03/22 05:13:38;;;;;;;10.20;3.92;;;10.20;99.90;;;;;;5076916;28;20394;-73
2023/03/22 05:16:05;;;;;;;10.70;4.78;;;10.30;99.90;;;;;;5057806;28;20044;-74
2023/03/22 05:18:31;;;;;;;8.80;3.92;;;10.40;99.90;;;;;;5073997;28;20514;-74
2023/03/22 05:20:59;;;;;;;8.75;4.18;;;10.40;99.90;;;;;;5076835;28;20040;-74
2023/03/22 05:23:26;;;;;;;8.73;4.57;;;10.40;99.90;;;;;;5079784;28;20040;-74
2023/03/22 05:25:52;;;;;;;9.73;4.75;;;10.40;99.90;;;;;;5060782;28;20507;-73
2023/03/22 05:28:20;;;;;;;8.60;5.18;;;10.40;99.90;;;;;;5074242;28;20040;-74
2023/03/22 05:30:48;;;;;;;12.07;4.75;;;10.50;99.90;;;;;;5072315;28;20043;-73
2023/03/22 05:33:15;;;;;;;9.35;4.85;;;10.50;99.90;;;;;;5063931;28;20197;-73
2023/03/22 05:35:42;;;;;;;8.55;4.93;;;10.50;99.90;;;;;;5060547;28;20040;-74
2023/03/22 05:38:07;;;;;;;;;;;10.50;99.90;;;;;;5071954;28;20043;-72
2023/03/22 05:40:33;;;;;;;11.15;5.60;;;10.50;99.90;;;;;;5071609;28;20283;-73
2023/03/22 05:42:59;;;;;;;10.80;6.00;;;10.50;99.90;;;;;;5051654;28;20044;-73
2023/03/22 05:45:25;;;;;;;12.48;6.10;;;10.50;99.90;;;;;;5056254;28;20051;-73
2023/03/22 05:47:52;;;;;;;;;;;10.50;99.90;;;;;;5070748;28;20055;-74
2023/03/22 05:50:20;;;;;;;9.65;6.30;;;10.50;99.90;;;;;;5056689;28;19951;-74
2023/03/22 05:52:46;;;;;;;12.10;6.40;;;10.50;99.90;;;;;;5075550;28;20054;-74
2023/03/22 05:55:16;;;;;;;12.02;6.40;;;10.50;99.90;;;;;;5081501;28;20062;-73
2023/03/22 05:57:43;;;;;;;10.38;5.88;;;10.50;99.90;;;;;;5073851;28;20468;-73
2023/03/22 06:00:15;;;;;;;12.15;7.00;;;10.40;99.90;;;;;;5073103;28;20082;-72
2023/03/22 06:02:46;;;;;;;11.75;6.70;;;10.50;99.90;;;;;;5077343;28;20078;-73
2023/03/22 06:05:13;;;;;;;14.02;6.22;;;10.50;99.90;;;;;;5060703;28;20116;-73
2023/03/22 06:07:40;;;;;;;12.63;6.85;;;10.40;99.90;;;;;;5080658;28;20041;-73
2023/03/22 06:10:08;;;;;;;9.55;5.47;;;10.50;99.90;;;;;;5076707;28;20124;-73
2023/03/22 06:12:34;;;;;;;10.50;6.45;;;10.40;99.90;;;;;;5064029;28;20036;-73
2023/03/22 06:15:00;;;;;;;9.45;6.15;;;10.50;99.90;;;;;;5079491;28;20121;-74
2023/03/22 06:17:26;;;;;;;11.30;6.45;;;10.50;99.90;;;;;;5074275;28;20044;-74
2023/03/22 06:19:53;;;;;;;10.27;6.70;;;10.50;99.90;;;;;;5078043;28;20050;-73
2023/03/22 06:22:19;;;;;;;10.20;6.60;;;10.50;99.90;;;;;;5061071;28;20420;-73
2023/03/22 06:24:46;;;;;;;12.70;7.25;;;10.50;99.90;;;;;;5079880;28;20064;-73
2023/03/22 06:27:12;;;;;;;11.15;6.50;;;10.50;99.90;;;;;;5062656;28;20637;-73
2023/03/22 06:29:38;;;;;;;10.85;6.53;;;10.60;99.90;;;;;;5064116;28;20119;-72
2023/03/22 06:32:05;;;;;;;13.00;6.68;;;10.60;99.90;;;;;;5061533;28;20120;-73
2023/03/22 06:34:31;;;;;;;10.75;6.78;;;10.60;99.90;;;;;;5077962;28;20044;-75
2023/03/22 06:36:57;;;;;;;10.63;7.30;;;10.60;99.90;;;;;;5076530;28;20044;-75
2023/03/22 06:39:23;;;;;;;10.02;6.45;;;10.60;99.90;;;;;;5081639;28;20084;-75
2023/03/22 06:41:49;;;;;;;11.77;6.78;;;10.60;99.90;;;;;;5072350;28;20096;-73
2023/03/22 06:44:15;;;;;;;11.90;6.68;;;10.60;99.90;;;;;;5077416;28;20044;-75
2023/03/22 06:46:41;;;;;;;11.23;6.75;;;10.70;99.90;;;;;;5075519;28;20190;-74
2023/03/22 06:49:07;;;;;;;12.23;7.57;;;10.70;99.90;;;;;;5077122;28;20130;-74
2023/03/22 06:51:33;;;;;;;10.82;6.95;;;10.70;99.90;;;;;;5075975;28;20040;-74
2023/03/22 06:53:59;;;;;;;11.88;6.72;;;10.70;99.90;;;;;;5077606;28;20049;-75
2023/03/22 06:56:25;;;;;;;11.77;7.10;;;10.80;99.90;;;;;;5060415;28;20054;-75
2023/03/22 06:58:50;;;;;;;13.32;7.60;;;10.80;99.90;;;;;;5077765;28;20396;-75
2023/03/22 07:01:17;;;;;;;10.50;6.78;;;10.80;99.90;;;;;;5076393;28;20502;-73
2023/03/22 07:03:43;;;;;;;9.57;6.80;;;10.90;99.90;;;;;;5073610;28;20052;-73
2023/03/22 07:06:09;;;;;;;12.50;6.88;;;11.00;99.90;;;;;;5059417;28;20047;-73
2023/03/22 07:08:36;;;;;;;11.30;6.47;;;11.10;99.90;;;;;;5075684;28;20459;-74
2023/03/22 07:11:03;;;;;;;11.88;6.72;;;11.20;99.90;;;;;;5079226;28;20406;-74
2023/03/22 07:13:32;;;;;;;9.07;6.40;;;11.20;99.90;;;;;;5081129;28;20044;-74
2023/03/22 07:15:59;;;;;;;10.45;6.80;;;11.30;99.90;;;;;;5067484;28;20052;-75
2023/03/22 07:18:25;;;;;;;10.05;7.03;;;11.30;99.90;;;;;;5084726;28;20117;-77
2023/03/22 07:20:51;;;;;;;11.30;6.70;;;11.30;99.90;;;;;;5063501;28;20036;-73
2023/03/22 07:23:17;;;;;;;10.88;6.82;;;11.30;99.90;;;;;;5080191;28;20050;-73
2023/03/22 07:25:43;;;;;;;;;;;11.30;99.90;;;;;;5083308;28;20372;-74
2023/03/22 07:28:10;;;;;;;12.70;6.80;;;11.30;99.90;;;;;;5058844;28;19924;-73
2023/03/22 07:30:37;;;;;;;11.32;6.78;;;11.30;99.90;;;;;;5075741;28;20048;-74
2023/03/22 07:33:07;;;;;;;9.88;6.13;;;11.30;99.90;;;;;;5078070;28;20044;-73
2023/03/22 07:35:34;;;;;;;11.80;6.25;;;11.30;99.90;;;;;;5089437;28;20029;-76
2023/03/22 07:38:00;;;;;;;9.30;6.13;;;11.30;99.90;;;;;;5074853;28;20131;-75
2023/03/22 07:40:26;;;;;;;11.75;6.68;;;11.30;99.90;;;;;;5085285;28;20075;-73
2023/03/22 07:42:52;;;;;;;13.80;6.82;;;11.40;99.90;;;;;;5081392;28;20048;-72
2023/03/22 07:45:19;;;;;;;13.85;6.82;;;11.40;99.90;;;;;;5082624;28;20159;-73
2023/03/22 07:47:45;;;;;;;11.10;6.45;;;11.30;99.90;;;;;;5076533;28;20060;-72
2023/03/22 07:50:12;;;;;;;10.95;5.97;;;11.30;99.90;;;;;;5072397;28;20066;-73
2023/03/22 07:52:41;;;;;;;12.60;6.22;;;11.30;99.90;;;;;;5082296;28;20119;-73
2023/03/22 07:55:09;;;;;;;12.88;6.13;;;11.30;99.90;;;;;;5069990;28;20051;-74
2023/03/22 07:57:35;;;;;;;10.15;5.88;;;11.30;99.90;;;;;;5084437;28;20543;-73
2023/03/22 08:00:03;;;;;;;12.88;6.30;;;11.30;99.90;;;;;;5058587;28;20070;-73
2023/03/22 08:02:29;;;;;;;13.20;5.30;;;11.40;99.90;;;;;;5071167;28;20439;-74
2023/03/22 08:04:55;;;;;;;13.30;5.65;;;11.50;99.90;;;;;;5070599;28;20407;-73
2023/03/22 08:07:23;;;;;;;11.75;5.72;;;11.60;99.90;;;;;;5073176;28;20044;-73
2023/03/22 08:09:49;;;;;;;10.65;5.00;;;11.70;99.90;;;;;;5079763;28;20131;-74
2023/03/22 08:12:15;;;;;;;12.15;5.15;;;11.80;99.90;;;;;;5074796;28;20039;-73
2023/03/22 08:14:41;;;;;;;12.85;5.30;;;11.80;99.90;;;;;;5081501;28;20036;-73
2023/03/22 08:17:06;;;;;;;13.35;4.95;;;11.80;99.90;;;;;;5074511;28;20040;-74
2023/03/22 08:19:33;;;;;;;11.45;4.80;;;11.80;99.90;;;;;;5066615;28;20545;-73
2023/03/22 08:21:59;;;;;;;12.95;5.03;;;11.70;99.90;;;;;;5077312;28;20122;-73
2023/03/22 08:24:25;;;;;;;10.40;4.90;;;11.70;99.90;;;;;;5074603;28;20185;-72
2023/03/22 08:26:52;;;;;;;9.68;4.82;;;11.70;99.90;;;;;;5073945;28;20046;-73
2023/03/22 08:29:18;;;;;;;;;;;11.70;99.90;;;;;;5071051;28;20114;-72
2023/03/22 08:31:45;;;;;;;9.07;4.90;;;11.70;99.90;;;;;;5080866;28;20003;-73
2023/03/22 08:34:11;;;;;;;8.05;4.22;;;11.70;99.90;;;;;;5075578;28;20041;-72
2023/03/22 08:36:37;;;;;;;7.32;4.40;;;11.80;99.90;;;;;;5078170;28;20036;-72
2023/03/22 08:39:04;;;;;;;7.78;4.20;;;11.80;99.90;;;;;;5085292;28;20474;-72
2023/03/22 08:41:30;;;;;;;9.32;4.95;;;11.80;99.90;;;;;;5077500;28;20117;-72
2023/03/22 08:43:56;;;;;;;9.23;4.25;;;11.90;99.90;;;;;;5085681;28;20523;-74
2023/03/22 08:46:22;;;;;;;12.73;4.43;;;12.00;99.90;;;;;;5053075;28;20064;-74
2023/03/22 08:48:49;;;;;;;;;;;11.90;99.90;;;;;;5080637;28;20537;-73
2023/03/22 08:51:20;;;;;;;11.05;4.40;;;11.90;99.90;;;;;;5067277;28;19919;-73
2023/03/22 08:53:47;;;;;;;14.45;5.82;;;11.90;99.90;;;;;;5056903;28;20052;-74
2023/03/22 08:56:15;;;;;;;10.93;4.03;;;12.00;99.90;;;;;;5064653;28;20040;-73
2023/03/22 08:58:47;;;;;;;9.80;4.15;;;12.00;99.90;;;;;;5069411;28;20171;-72
2023/03/22 09:01:14;;;;;;;8.07;4.00;;;12.10;99.90;;;;;;5064940;28;20120;-73
2023/03/22 09:03:40;;;;;;;9.15;3.70;;;12.20;99.90;;;;;;5068349;28;20064;-73
2023/03/22 09:06:06;;;;;;;10.15;3.95;;;12.10;99.90;;;;;;5082334;28;20087;-69
2023/03/22 09:08:33;;;;;;;10.35;3.90;;;12.10;99.90;;;;;;5078532;28;20449;-68
2023/03/22 09:10:59;;;;;;;15.43;4.25;;;12.10;99.90;;;;;;5073432;28;20063;-68
2023/03/22 09:13:25;;;;;;;9.45;3.67;;;12.00;99.90;;;;;;5054476;28;20105;-68
2023/03/22 09:15:51;;;;;;;9.70;3.85;;;12.00;99.90;;;;;;5073740;28;20044;-69
2023/03/22 09:18:18;;;;;;;7.60;3.10;;;12.00;99.90;;;;;;5072344;28;20049;-75
2023/03/22 09:20:44;;;;;;;11.45;4.03;;;12.10;99.90;;;;;;5084595;28;20063;-74
2023/03/22 09:23:11;;;;;;;9.43;3.45;;;12.00;99.90;;;;;;5087564;28;20123;-74
2023/03/22 09:25:37;;;;;;;7.05;3.25;;;12.00;99.90;;;;;;5078110;28;20369;-74
2023/03/22 09:28:03;;;;;;;8.95;3.70;;;12.00;99.90;;;;;;5071922;28;20380;-74
2023/03/22 09:30:29;;;;;;;9.80;2.90;;;12.10;99.90;;;;;;5074908;28;20050;-76
2023/03/22 09:32:55;;;;;;;8.73;3.20;;;12.10;99.90;;;;;;5070796;28;20048;-74
2023/03/22 09:35:21;;;;;;;6.72;3.40;;;12.10;99.90;;;;;;5092591;28;20073;-73
2023/03/22 09:37:48;;;;;;;6.50;3.10;;;12.10;99.90;;;;;;5075614;28;20044;-73
2023/03/22 09:40:14;;;;;;;9.25;3.33;;;12.00;99.90;;;;;;5093369;28;20048;-74
2023/03/22 09:42:46;;;;;;;8.70;2.70;;;12.00;99.90;;;;;;5080388;28;20123;-74
2023/03/22 09:45:31;;;;;;;9.15;2.85;;;12.00;99.90;;;;;;5086449;28;20142;-75
2023/03/22 09:47:58;;;;;;;7.25;2.78;;;12.00;99.90;;;;;;5082849;28;20055;-74
2023/03/22 09:50:30;;;;;;;7.35;3.03;;;12.00;99.90;;;;;;5079080;28;20068;-75
2023/03/22 09:52:58;;;;;;;9.32;2.80;;;11.90;99.90;;;;;;5085858;28;20052;-74
2023/03/22 09:55:43;;;;;;;8.10;2.67;;;11.90;99.90;;;;;;5094722;28;20066;-74
2023/03/22 09:58:24;;;;;;;6.90;2.70;;;11.80;99.90;;;;;;5068553;28;20040;-75
2023/03/22 10:00:57;;;;;;;8.23;2.60;;;11.80;99.90;;;;;;5084031;28;20322;-74
2023/03/22 10:03:52;;;;;;;7.13;2.70;;;11.70;99.90;;;;;;5088525;28;20043;-74
2023/03/22 10:06:20;;;;;;;7.00;2.88;;;11.70;99.90;;;;;;5081947;28;20067;-73
2023/03/22 10:09:26;;;;;;;8.27;2.90;;;11.50;99.90;;;;;;5080590;28;20123;-74
2023/03/22 10:12:03;;;;;;;6.93;2.58;;;11.40;99.90;;;;;;5079589;28;20066;-74
2023/03/22 10:14:48;;;;;;;8.60;3.00;;;11.30;99.90;;;;;;5083020;28;20097;-74
2023/03/22 10:17:17;;;;;;;8.20;2.83;;;11.20;99.90;;;;;;5076117;28;20486;-74
2023/03/22 10:20:04;;;;;;;7.22;2.90;;;11.10;99.90;;;;;;5074644;28;20368;-74
2023/03/22 10:22:35;;;;;;;7.10;3.17;;;11.10;99.90;;;;;;5074584;28;20052;-75
2023/03/22 10:25:01;;;;;;;9.25;3.00;;;11.10;99.90;;;;;;5081135;28;20411;-74
2023/03/22 10:27:28;;;;;;;;;;;11.10;99.90;;;;;;5084414;28;20105;-74
2023/03/22 10:30:18;;;;;;;8.50;3.00;;;11.00;99.90;;;;;;5070428;28;19920;-74
2023/03/22 10:33:15;;;;;;;5.85;2.45;;;11.00;99.90;;;;;;5087767;28;20554;-74
2023/03/22 10:35:42;;;;;;;7.00;2.70;;;10.90;99.90;;;;;;5066681;28;20188;-74
2023/03/22 10:38:20;;;;;;;6.53;2.65;;;10.90;99.90;;;;;;5073408;28;20059;-74
2023/03/22 10:40:47;;;;;;;6.05;2.72;;;10.80;99.90;;;;;;5086352;28;20032;-73
2023/03/22 10:43:27;;;;;;;7.85;3.08;;;10.80;99.90;;;;;;5060713;28;20045;-73
2023/03/22 10:45:54;;;;;;;5.63;2.60;;;10.70;99.90;;;;;;5087549;28;20052;-74
2023/03/22 10:48:32;;;;;;;4.68;2.55;;;10.70;99.90;;;;;;5081495;28;20051;-73
2023/03/22 10:50:59;;;;;;;8.05;2.80;;;10.70;99.90;;;;;;5072122;28;20069;-74
2023/03/22 10:53:39;;;;;;;5.70;2.95;;;10.70;99.90;;;;;;5082708;28;20063;-74
2023/03/22 10:56:12;;;;;;;7.53;3.00;;;10.70;99.90;;;;;;5080633;28;20094;-73
2023/03/22 10:58:38;;;;;;;6.50;2.88;;;10.60;99.90;;;;;;5055976;28;20037;-75
2023/03/22 11:01:13;;;;;;;8.85;2.80;;;10.70;99.90;;;;;;5062847;28;20474;-74
2023/03/22 11:03:47;;;;;;;7.00;2.97;;;10.70;99.90;;;;;;5074284;28;20059;-73
2023/03/22 11:06:14;;;;;;;6.05;3.10;;;10.70;99.90;;;;;;5086030;28;20459;-73
2023/03/22 11:08:45;;;;;;;5.57;2.45;;;10.70;99.90;;;;;;5084851;28;20043;-74
2023/03/22 11:11:15;;;;;;;7.85;3.20;;;10.70;99.90;;;;;;5093344;28;20076;-74
2023/03/22 11:13:41;;;;;;;9.63;3.13;;;10.70;99.90;;;;;;5069601;28;20048;-73
2023/03/22 11:16:07;;;;;;;9.75;2.83;;;10.80;99.90;;;;;;5080749;28;20060;-73
2023/03/22 11:18:34;;;;;;;6.25;2.47;;;10.70;99.90;;;;;;5085177;28;20035;-74
2023/03/22 11:21:09;;;;;;;7.93;2.75;;;10.80;99.90;;;;;;5090932;28;20082;-74
2023/03/22 11:23:39;;;;;;;6.97;3.07;;;10.80;99.90;;;;;;5088845;28;20082;-74
2023/03/22 11:26:11;;;;;;;5.82;2.72;;;10.90;99.90;;;;;;5071816;28;20044;-74
2023/03/22 11:28:45;;;;;;;6.40;3.42;;;10.90;99.90;;;;;;5079748;28;20040;-74
2023/03/22 11:31:15;;;;;;;5.40;2.72;;;10.90;99.90;;;;;;5080146;28;20051;-74
2023/03/22 11:33:57;;;;;;;6.78;3.03;;;10.90;99.90;;;;;;5080891;28;20051;-74
2023/03/22 11:36:24;;;;;;;6.50;2.90;;;10.90;99.90;;;;;;5076393;28;20048;-75
2023/03/22 11:38:59;;;;;;;5.72;2.50;;;11.00;99.90;;;;;;5079042;28;20518;-74
2023/03/22 11:41:36;;;;;;;5.78;3.15;;;11.00;99.90;;;;;;5064147;28;20056;-74
2023/03/22 11:44:06;;;;;;;6.88;2.85;;;11.00;99.90;;;;;;5086933;28;20054;-74
2023/03/22 11:46:33;;;;;;;7.18;3.00;;;10.90;99.90;;;;;;5070797;28;20500;-74
2023/03/22 11:49:04;;;;;;;5.63;2.92;;;11.00;99.90;;;;;;5082742;28;20043;-74
2023/03/22 11:51:34;;;;;;;5.72;2.28;;;11.00;99.90;;;;;;5065499;28;20135;-74
2023/03/22 11:54:08;;;;;;;8.93;2.88;;;11.00;99.90;;;;;;5087878;28;20055;-75
2023/03/22 11:56:40;;;;;;;7.85;2.60;;;11.00;99.90;;;;;;5065099;28;20041;-75
2023/03/22 11:59:11;;;;;;;6.45;2.50;;;11.00;99.90;;;;;;5082459;28;20093;-75
2023/03/22 12:01:43;;;;;;;4.70;2.20;;;11.00;99.90;;;;;;5074500;28;20059;-74
2023/03/22 12:04:15;;;;;;;5.22;2.40;;;11.00;99.90;;;;;;5077423;28;20617;-75
2023/03/22 12:06:42;;;;;;;5.30;2.50;;;11.00;99.90;;;;;;5085839;28;20028;-75
2023/03/22 12:09:21;;;;;;;5.57;2.30;;;11.10;99.90;;;;;;5081644;28;20064;-74
2023/03/22 12:11:50;;;;;;;4.15;2.22;;;11.10;99.90;;;;;;5088776;28;20467;-74
2023/03/22 12:14:24;;;;;;;5.72;2.58;;;11.10;99.90;;;;;;5068705;28;20080;-74
2023/03/22 12:16:57;;;;;;;4.72;2.30;;;11.10;99.90;;;;;;5089160;28;20044;-74
2023/03/22 12:19:54;;;;;;;7.88;2.78;;;11.10;99.90;;;;;;5085875;28;20055;-74
2023/03/22 12:22:26;;;;;;;6.72;2.83;;;11.10;99.90;;;;;;5062656;28;20044;-74
2023/03/22 12:24:51;;;;;;;6.07;2.67;;;11.10;99.90;;;;;;5080151;28;20036;-74
2023/03/22 12:27:26;;;;;;;5.15;2.30;;;11.10;99.90;;;;;;5088728;28;20563;-74
2023/03/22 12:30:07;;;;;;;6.00;2.53;;;11.10;99.90;;;;;;5058537;28;20040;-74
2023/03/22 12:33:00;;;;;;;4.60;2.50;;;11.20;99.90;;;;;;5071748;28;20048;-73
2023/03/22 12:35:35;;;;;;;5.30;2.30;;;11.20;99.90;;;;;;5073378;28;20048;-74
2023/03/22 12:38:19;;;;;;;7.03;2.83;;;11.20;99.90;;;;;;5075423;28;20043;-73
2023/03/22 12:40:46;;;;;;;7.28;2.47;;;11.20;99.90;;;;;;5077821;28;20043;-74
2023/03/22 12:43:15;;;;;;;7.47;2.40;;;11.20;99.90;;;;;;5059053;28;20055;-74
2023/03/22 12:45:56;;;;;;;8.07;2.50;;;11.00;99.90;;;;;;5065125;28;20112;-75
2023/03/22 12:48:37;;;;;;;6.75;3.10;;;10.90;99.90;;;;;;5078902;28;20116;-75
2023/03/22 12:51:11;;;;;;;6.70;3.25;;;10.90;99.90;;;;;;5081465;28;20043;-73
2023/03/22 12:53:47;;;;;;;5.47;2.42;;;10.90;99.90;;;;;;5084686;28;20119;-74
2023/03/22 12:56:24;;;;;;;4.63;2.50;;;10.90;99.90;;;;;;5070654;28;20044;-74
2023/03/22 12:58:54;;;;;;;8.23;2.53;;;10.80;99.90;;;;;;5075039;28;20402;-74
2023/03/22 13:01:43;;;;;;;8.30;2.88;;;10.80;99.90;;;;;;5080183;28;20032;-75